createdAt,value
2023-02-11T00:02:12.704Z,28.85
2023-02-11T00:04:39.323Z,27.50
2023-02-11T00:07:06.091Z,27.40
2023-02-11T00:09:32.768Z,28.48
2023-02-11T00:11:59.344Z,26.65
2023-02-11T00:14:25.952Z,25.20
2023-02-11T00:16:52.567Z,29.95
2023-02-11T00:19:19.262Z,27.13
2023-02-11T00:21:45.938Z,26.92
2023-02-11T00:24:12.558Z,26.83
2023-02-11T00:26:39.150Z,23.52
2023-02-11T00:29:05.989Z,27.33
2023-02-11T00:31:33.033Z,25.35
2023-02-11T00:33:59.729Z,28.17
2023-02-11T00:36:27.250Z,30.63
2023-02-11T00:38:54.265Z,24.27
2023-02-11T00:41:21.075Z,21.23
2023-02-11T00:43:47.639Z,25.27
2023-02-11T00:46:14.575Z,24.98
2023-02-11T00:48:41.330Z,25.00
2023-02-11T00:51:08.066Z,23.65
2023-02-11T00:53:35.212Z,27.52
2023-02-11T00:56:02.000Z,28.30
2023-02-11T00:58:28.797Z,24.55
2023-02-11T01:00:55.468Z,22.02
2023-02-11T01:03:22.393Z,25.45
2023-02-11T01:05:49.433Z,26.77
2023-02-11T01:08:16.335Z,23.02
2023-02-11T01:10:43.938Z,23.92
2023-02-11T01:13:10.677Z,29.20
2023-02-11T01:15:37.279Z,24.50
2023-02-11T01:18:05.234Z,21.98
2023-02-11T01:20:31.867Z,24.63
2023-02-11T01:22:58.483Z,27.60
2023-02-11T01:25:25.100Z,27.52
2023-02-11T01:27:51.699Z,26.45
2023-02-11T01:30:18.333Z,26.90
2023-02-11T01:32:44.936Z,25.58
2023-02-11T01:35:11.608Z,22.45
2023-02-11T01:37:38.388Z,26.17
2023-02-11T01:40:06.127Z,30.90
2023-02-11T01:42:32.875Z,25.20
2023-02-11T01:45:00.040Z,24.30
2023-02-11T01:47:26.901Z,25.98
2023-02-11T01:49:57.029Z,22.70
2023-02-11T01:52:30.258Z,23.73
2023-02-11T01:55:19.669Z,23.80
2023-02-11T01:57:47.885Z,18.42
2023-02-11T02:00:18.023Z,23.48
2023-02-11T02:03:00.827Z,21.75
2023-02-11T02:05:33.034Z,22.88
2023-02-11T02:08:06.595Z,20.90
2023-02-11T02:10:34.044Z,22.35
2023-02-11T02:13:00.654Z,19.70
2023-02-11T02:15:29.511Z,26.35
2023-02-11T02:17:59.952Z,18.77
2023-02-11T02:20:46.385Z,17.10
2023-02-11T02:23:49.183Z,18.92
2023-02-11T02:26:38.489Z,23.15
2023-02-11T02:29:44.997Z,23.48
2023-02-11T02:32:39.633Z,21.67
2023-02-11T02:35:32.441Z,18.08
2023-02-11T02:40:41.773Z,16.42
2023-02-11T02:43:08.955Z,21.10
2023-02-11T02:45:35.597Z,19.23
2023-02-11T02:48:02.189Z,19.20
2023-02-11T02:50:31.189Z,17.13
2023-02-11T02:55:55.106Z,16.98
2023-02-11T02:58:32.785Z,15.95
2023-02-11T03:01:13.805Z,17.58
2023-02-11T03:03:49.200Z,14.60
2023-02-11T03:06:22.233Z,15.13
2023-02-11T03:08:52.485Z,23.30
2023-02-11T03:11:19.185Z,22.10
2023-02-11T03:13:46.027Z,18.95
2023-02-11T03:16:15.617Z,19.88
2023-02-11T03:18:44.160Z,15.10
2023-02-11T03:21:10.888Z,16.05
2023-02-11T03:23:55.040Z,18.58
2023-02-11T03:26:25.849Z,18.75
2023-02-11T03:29:04.826Z,17.40
2023-02-11T03:31:40.880Z,17.20
2023-02-11T03:34:14.595Z,17.40
2023-02-11T03:36:59.953Z,14.80
2023-02-11T03:39:29.688Z,20.23
2023-02-11T03:41:56.472Z,17.83
2023-02-11T03:44:23.064Z,16.75
2023-02-11T03:46:50.730Z,15.07
2023-02-11T03:49:18.857Z,16.77
2023-02-11T03:51:45.512Z,18.02
2023-02-11T03:54:14.654Z,18.15
2023-02-11T03:56:49.192Z,13.57
2023-02-11T03:59:15.801Z,13.98
2023-02-11T04:01:42.351Z,14.77
2023-02-11T04:04:08.945Z,17.48
2023-02-11T04:06:35.591Z,15.27
2023-02-11T04:09:02.367Z,14.55
2023-02-11T04:11:29.021Z,16.98
2023-02-11T04:13:55.626Z,17.90
2023-02-11T04:16:22.393Z,17.80
2023-02-11T04:18:49.175Z,17.35
2023-02-11T04:21:15.832Z,16.17
2023-02-11T04:23:42.513Z,15.27
2023-02-11T04:26:09.117Z,16.52
2023-02-11T04:28:36.315Z,16.90
2023-02-11T04:31:03.081Z,17.15
2023-02-11T04:33:29.729Z,16.25
2023-02-11T04:35:56.386Z,22.70
2023-02-11T04:38:24.086Z,15.68
2023-02-11T04:40:50.879Z,15.25
2023-02-11T04:43:17.567Z,69.03
2023-02-11T04:45:44.174Z,21.48
2023-02-11T04:48:10.807Z,17.73
2023-02-11T04:50:37.400Z,14.65
2023-02-11T04:53:03.980Z,12.85
2023-02-11T04:55:30.668Z,15.85
2023-02-11T04:57:57.246Z,15.70
2023-02-11T05:00:23.922Z,14.27
2023-02-11T05:02:50.702Z,13.02
2023-02-11T05:05:17.307Z,14.43
2023-02-11T05:07:43.927Z,17.30
2023-02-11T05:10:10.570Z,14.23
2023-02-11T05:12:37.244Z,13.80
2023-02-11T05:15:04.063Z,14.35
2023-02-11T05:17:30.671Z,12.55
2023-02-11T05:19:57.422Z,12.73
2023-02-11T05:22:23.976Z,13.73
2023-02-11T05:24:50.779Z,16.10
2023-02-11T05:27:17.483Z,11.93
2023-02-11T05:29:44.071Z,15.95
2023-02-11T05:32:10.741Z,14.88
2023-02-11T05:34:37.552Z,13.32
2023-02-11T05:37:04.262Z,12.75
2023-02-11T05:39:30.936Z,12.93
2023-02-11T05:41:57.590Z,12.90
2023-02-11T05:44:24.461Z,12.20
2023-02-11T05:46:51.177Z,13.20
2023-02-11T05:49:17.797Z,14.65
2023-02-11T05:51:47.365Z,16.88
2023-02-11T05:54:14.061Z,13.52
2023-02-11T05:56:42.608Z,15.07
2023-02-11T05:59:13.459Z,13.65
2023-02-11T06:01:40.083Z,13.25
2023-02-11T06:04:06.952Z,13.55
2023-02-11T06:06:33.580Z,13.18
2023-02-11T06:09:00.154Z,16.52
2023-02-11T06:11:26.751Z,16.98
2023-02-11T06:13:53.494Z,12.63
2023-02-11T06:16:20.224Z,14.38
2023-02-11T06:18:46.873Z,12.23
2023-02-11T06:21:13.566Z,15.32
2023-02-11T06:23:40.576Z,12.23
2023-02-11T06:26:08.748Z,13.52
2023-02-11T06:28:36.077Z,13.63
2023-02-11T06:31:06.745Z,12.45
2023-02-11T06:33:34.284Z,13.57
2023-02-11T06:36:01.170Z,12.82
2023-02-11T06:38:27.801Z,12.25
2023-02-11T06:40:54.568Z,11.23
2023-02-11T06:43:21.230Z,12.27
2023-02-11T06:45:53.446Z,18.35
2023-02-11T06:48:20.369Z,12.02
2023-02-11T06:50:47.378Z,14.50
2023-02-11T06:53:13.969Z,11.30
2023-02-11T06:55:40.657Z,11.98
2023-02-11T06:58:07.292Z,14.00
2023-02-11T07:00:33.943Z,14.75
2023-02-11T07:03:00.547Z,15.13
2023-02-11T07:05:27.449Z,11.23
2023-02-11T07:07:54.108Z,10.55
2023-02-11T07:10:20.762Z,11.90
2023-02-11T07:12:47.416Z,10.23
2023-02-11T07:15:14.004Z,12.38
2023-02-11T07:17:40.808Z,8.15
2023-02-11T07:20:07.607Z,9.73
2023-02-11T07:22:34.763Z,25.48
2023-02-11T07:25:01.367Z,17.92
2023-02-11T07:27:27.961Z,9.77
2023-02-11T07:29:54.593Z,9.48
2023-02-11T07:32:21.753Z,12.48
2023-02-11T07:34:49.397Z,16.70
2023-02-11T07:37:16.016Z,11.48
2023-02-11T07:39:42.627Z,9.93
2023-02-11T07:42:09.355Z,10.43
2023-02-11T07:44:36.913Z,32.78
2023-02-11T07:47:03.720Z,10.68
2023-02-11T07:49:30.688Z,9.48
2023-02-11T07:51:57.261Z,12.20
2023-02-11T07:54:23.890Z,14.95
2023-02-11T07:56:50.492Z,10.63
2023-02-11T07:59:17.152Z,10.45
2023-02-11T08:01:43.863Z,12.05
2023-02-11T08:04:10.560Z,10.45
2023-02-11T08:06:41.080Z,10.35
2023-02-11T08:09:08.765Z,13.25
2023-02-11T08:11:35.567Z,13.30
2023-02-11T08:14:02.227Z,14.02
2023-02-11T08:16:30.476Z,15.20
2023-02-11T08:18:58.032Z,10.57
2023-02-11T08:21:24.891Z,9.55
2023-02-11T08:23:51.611Z,11.23
2023-02-11T08:26:20.307Z,15.38
2023-02-11T08:28:47.511Z,14.55
2023-02-11T08:31:16.419Z,16.20
2023-02-11T08:33:43.390Z,15.48
2023-02-11T08:36:11.060Z,15.35
2023-02-11T08:38:37.821Z,12.68
2023-02-11T08:41:04.618Z,13.52
2023-02-11T08:43:31.638Z,12.98
2023-02-11T08:46:00.724Z,17.13
2023-02-11T08:48:28.652Z,15.20
2023-02-11T08:50:56.042Z,11.80
2023-02-11T08:53:22.654Z,19.00
2023-02-11T08:55:51.558Z,17.05
2023-02-11T08:58:19.258Z,14.23
2023-02-11T09:00:46.475Z,20.10
2023-02-11T09:03:14.024Z,23.52
2023-02-11T09:05:42.921Z,21.45
2023-02-11T09:08:09.575Z,24.08
2023-02-11T09:10:36.422Z,17.20
2023-02-11T09:13:03.208Z,19.90
2023-02-11T09:15:29.988Z,14.60
2023-02-11T09:17:56.838Z,19.60
2023-02-11T09:20:23.954Z,14.75
2023-02-11T09:22:50.733Z,14.90
2023-02-11T09:25:17.390Z,12.80
2023-02-11T09:27:44.327Z,11.57
2023-02-11T09:30:11.731Z,15.95
2023-02-11T09:32:38.372Z,17.42
2023-02-11T09:35:05.382Z,25.17
2023-02-11T09:37:31.964Z,27.40
2023-02-11T09:39:59.108Z,15.02
2023-02-11T09:42:46.395Z,13.98
2023-02-11T09:45:17.889Z,12.93
2023-02-11T09:48:05.899Z,13.60
2023-02-11T09:50:34.704Z,13.95
2023-02-11T09:53:14.485Z,14.93
2023-02-11T09:55:43.179Z,16.08
2023-02-11T09:58:37.992Z,17.30
2023-02-11T10:01:44.595Z,12.45
2023-02-11T10:04:19.566Z,16.55
2023-02-11T10:06:49.246Z,17.17
2023-02-11T10:09:40.222Z,13.65
2023-02-11T10:12:35.087Z,21.23
2023-02-11T10:15:24.389Z,12.77
2023-02-11T10:18:05.708Z,20.30
2023-02-11T10:20:54.376Z,16.42
2023-02-11T10:23:25.914Z,15.23
2023-02-11T10:25:54.490Z,23.52
2023-02-11T10:28:24.647Z,25.58
2023-02-11T10:30:57.920Z,19.90
2023-02-11T10:36:05.601Z,21.42
2023-02-11T10:38:33.721Z,15.80
2023-02-11T10:41:00.372Z,19.38
2023-02-11T10:43:28.212Z,18.98
2023-02-11T10:45:55.622Z,16.85
2023-02-11T10:48:44.788Z,18.88
2023-02-11T10:54:13.850Z,16.38
2023-02-11T10:56:50.541Z,20.90
2023-02-11T10:59:40.144Z,18.92
2023-02-11T11:02:23.778Z,19.40
2023-02-11T11:04:50.434Z,22.38
2023-02-11T11:07:21.839Z,17.02
2023-02-11T11:10:25.140Z,13.02
2023-02-11T11:15:22.668Z,21.45
2023-02-11T11:17:50.470Z,24.73
2023-02-11T11:20:35.207Z,21.00
2023-02-11T11:23:19.906Z,16.90
2023-02-11T11:25:59.347Z,20.05
2023-02-11T11:28:27.176Z,21.95
2023-02-11T11:30:54.965Z,13.75
2023-02-11T11:33:25.860Z,20.90
2023-02-11T11:36:06.643Z,18.48
2023-02-11T11:38:34.574Z,19.98
2023-02-11T11:43:59.664Z,16.88
2023-02-11T11:46:31.580Z,20.20
2023-02-11T11:49:21.347Z,18.08
2023-02-11T11:51:55.424Z,17.10
2023-02-11T11:54:22.019Z,19.27
2023-02-11T11:56:55.635Z,18.40
2023-02-11T11:59:22.240Z,16.33
2023-02-11T12:02:12.625Z,17.45
2023-02-11T12:05:09.354Z,13.05
2023-02-11T12:07:51.406Z,16.55
2023-02-11T12:10:43.183Z,16.52
2023-02-11T12:16:13.884Z,13.85
2023-02-11T12:19:20.508Z,12.80
2023-02-11T12:24:57.089Z,20.40
2023-02-11T12:30:41.866Z,16.48
2023-02-11T12:33:32.721Z,20.02
2023-02-11T12:39:00.531Z,16.77
2023-02-11T12:42:18.152Z,16.70
2023-02-11T12:48:00.732Z,18.30
2023-02-11T12:50:51.387Z,18.70
2023-02-11T12:53:58.004Z,13.85
2023-02-11T12:56:46.575Z,15.73
2023-02-11T12:59:28.695Z,22.15
2023-02-11T13:01:55.372Z,21.05
2023-02-11T13:04:28.908Z,13.77
2023-02-11T13:06:57.692Z,20.98
2023-02-11T13:09:26.881Z,15.32
2023-02-11T13:11:55.520Z,14.95
2023-02-11T13:14:37.883Z,17.08
2023-02-11T13:17:06.380Z,23.67
2023-02-11T13:19:39.016Z,13.77
2023-02-11T13:22:13.011Z,22.77
2023-02-11T13:25:02.077Z,13.85
2023-02-11T13:27:58.936Z,16.95
2023-02-11T13:30:31.352Z,15.43
2023-02-11T13:35:37.370Z,13.63
2023-02-11T13:38:05.736Z,11.95
2023-02-11T13:40:37.255Z,12.93
2023-02-11T13:43:05.012Z,16.42
2023-02-11T13:45:49.217Z,12.98
2023-02-11T13:48:37.820Z,17.25
2023-02-11T13:51:07.048Z,14.95
2023-02-11T13:53:54.644Z,10.13
2023-02-11T13:56:43.908Z,13.70
2023-02-11T13:59:33.497Z,15.27
2023-02-11T14:04:57.681Z,13.40
2023-02-11T14:07:59.249Z,13.77
2023-02-11T14:10:48.860Z,12.82
2023-02-11T14:16:31.593Z,13.15
2023-02-11T14:19:04.618Z,14.07
2023-02-11T14:21:34.869Z,12.85
2023-02-11T14:24:07.003Z,13.93
2023-02-11T14:26:54.986Z,13.57
2023-02-11T14:29:27.506Z,12.50
2023-02-11T14:32:06.082Z,16.95
2023-02-11T14:37:31.404Z,14.95
2023-02-11T14:40:22.930Z,12.70
2023-02-11T14:42:50.512Z,30.67
2023-02-11T14:45:20.127Z,19.48
2023-02-11T14:48:08.334Z,17.80
2023-02-11T14:50:43.416Z,18.25
2023-02-11T14:53:15.332Z,14.73
2023-02-11T14:55:42.877Z,19.90
2023-02-11T14:58:26.552Z,19.90
2023-02-11T15:03:38.170Z,22.92
2023-02-11T15:06:30.279Z,24.67
2023-02-11T15:09:00.840Z,21.37
2023-02-11T15:11:28.781Z,18.60
2023-02-11T15:13:55.979Z,21.40
2023-02-11T15:16:23.801Z,20.02
2023-02-11T15:18:53.462Z,18.83
2023-02-11T15:21:24.564Z,20.40
2023-02-11T15:24:30.532Z,19.52
2023-02-11T15:27:14.508Z,26.08
2023-02-11T15:29:43.437Z,21.75
2023-02-11T15:34:48.315Z,19.63
2023-02-11T15:37:21.688Z,16.70
2023-02-11T15:39:48.499Z,19.27
2023-02-11T15:47:54.417Z,22.02
2023-02-11T15:50:23.788Z,25.17
2023-02-11T15:52:50.490Z,22.42
2023-02-11T15:55:17.165Z,23.75
2023-02-11T15:57:45.661Z,19.42
2023-02-11T16:00:21.124Z,25.60
2023-02-11T16:02:48.671Z,25.75
2023-02-11T16:05:36.106Z,31.33
2023-02-11T16:08:20.217Z,29.70
2023-02-11T16:11:08.674Z,28.95
2023-02-11T16:13:50.402Z,28.27
2023-02-11T16:16:19.133Z,21.88
2023-02-11T16:19:04.298Z,28.77
2023-02-11T16:21:36.177Z,23.98
2023-02-11T16:24:03.581Z,23.10
2023-02-11T16:26:40.728Z,25.05
2023-02-11T16:29:16.511Z,26.25
2023-02-11T16:31:44.738Z,24.98
2023-02-11T16:34:15.359Z,27.15
2023-02-11T16:36:42.230Z,24.67
2023-02-11T16:39:08.979Z,28.65
2023-02-11T16:41:35.614Z,25.30
2023-02-11T16:44:02.280Z,28.58
2023-02-11T16:46:28.999Z,32.15
2023-02-11T16:48:56.020Z,33.25
2023-02-11T16:51:22.761Z,33.47
2023-02-11T16:53:49.412Z,30.65
2023-02-11T16:56:16.965Z,25.50
2023-02-11T16:58:44.299Z,27.88
2023-02-11T17:01:13.805Z,26.75
2023-02-11T17:03:40.740Z,29.10
2023-02-11T17:06:09.298Z,30.98
2023-02-11T17:08:36.000Z,26.17
2023-02-11T17:11:03.177Z,29.77
2023-02-11T17:13:29.792Z,27.38
2023-02-11T17:15:56.509Z,28.58
2023-02-11T17:18:23.145Z,29.55
2023-02-11T17:20:49.757Z,28.92
2023-02-11T17:23:16.372Z,28.60
2023-02-11T17:25:43.014Z,27.30
2023-02-11T17:28:11.973Z,30.85
2023-02-11T17:30:41.590Z,31.08
2023-02-11T17:33:08.175Z,26.80
2023-02-11T17:35:34.965Z,26.75
2023-02-11T17:38:01.639Z,35.83
2023-02-11T17:40:28.251Z,46.13
2023-02-11T17:42:54.850Z,33.95
2023-02-11T17:45:22.461Z,31.05
2023-02-11T17:47:49.441Z,30.92
2023-02-11T17:50:16.327Z,26.58
2023-02-11T17:52:42.915Z,32.00
2023-02-11T17:55:09.539Z,33.92
2023-02-11T17:57:36.192Z,31.02
2023-02-11T18:00:04.284Z,27.92
2023-02-11T18:02:30.874Z,27.40
2023-02-11T18:04:58.760Z,25.08
2023-02-11T18:07:26.029Z,21.38
2023-02-11T18:09:52.822Z,18.70
2023-02-11T18:12:26.116Z,28.30
2023-02-11T18:14:56.853Z,23.20
2023-02-11T18:17:24.691Z,23.55
2023-02-11T18:19:51.372Z,23.08
2023-02-11T18:22:18.101Z,20.80
2023-02-11T18:24:44.700Z,25.38
2023-02-11T18:27:11.288Z,23.25
2023-02-11T18:29:38.147Z,21.75
2023-02-11T18:32:05.096Z,30.63
2023-02-11T18:34:32.935Z,26.90
2023-02-11T18:36:59.669Z,24.00
2023-02-11T18:39:26.421Z,22.17
2023-02-11T18:41:56.772Z,32.78
2023-02-11T18:44:24.601Z,24.20
2023-02-11T18:46:51.874Z,23.52
2023-02-11T18:49:19.032Z,26.65
2023-02-11T18:51:45.902Z,23.30
2023-02-11T18:54:13.355Z,25.98
2023-02-11T18:56:40.171Z,24.52
2023-02-11T18:59:06.899Z,27.27
2023-02-11T19:01:34.271Z,25.02
2023-02-11T19:04:03.439Z,31.15
2023-02-11T19:06:32.856Z,34.90
2023-02-11T19:09:01.593Z,26.17
2023-02-11T19:11:50.194Z,22.33
2023-02-11T19:14:19.319Z,26.63
2023-02-11T19:16:46.303Z,27.02
2023-02-11T19:19:13.434Z,34.60
2023-02-11T19:21:41.546Z,35.22
2023-02-11T19:24:08.674Z,25.88
2023-02-11T19:26:35.504Z,32.17
2023-02-11T19:29:02.262Z,30.13
2023-02-11T19:31:32.059Z,34.83
2023-02-11T19:33:59.779Z,27.02
2023-02-11T19:36:26.532Z,36.53
2023-02-11T19:38:53.255Z,29.85
2023-02-11T19:41:22.337Z,36.85
2023-02-11T19:43:53.313Z,33.17
2023-02-11T19:46:20.985Z,32.17
2023-02-11T19:48:48.041Z,37.97
2023-02-11T19:51:14.841Z,31.17
2023-02-11T19:53:41.849Z,33.90
2023-02-11T19:56:08.514Z,32.80
2023-02-11T19:58:35.443Z,30.13
2023-02-11T20:01:22.192Z,27.92
2023-02-11T20:03:50.014Z,37.83
2023-02-11T20:06:18.483Z,34.45
2023-02-11T20:08:45.097Z,33.85
2023-02-11T20:11:14.033Z,33.30
2023-02-11T20:13:40.731Z,33.75
2023-02-11T20:16:09.172Z,34.78
2023-02-11T20:18:36.533Z,41.45
2023-02-11T20:21:08.137Z,33.28
2023-02-11T20:23:35.674Z,30.20
2023-02-11T20:26:10.110Z,32.30
2023-02-11T20:28:36.894Z,29.13
2023-02-11T20:31:04.284Z,31.85
2023-02-11T20:33:31.504Z,35.40
2023-02-11T20:36:02.459Z,33.20
2023-02-11T20:38:29.117Z,31.92
2023-02-11T20:40:55.878Z,36.33
2023-02-11T20:43:22.930Z,34.20
2023-02-11T20:45:50.079Z,31.40
2023-02-11T20:48:17.040Z,35.30
2023-02-11T20:50:45.430Z,34.08
2023-02-11T20:53:13.310Z,32.22
2023-02-11T20:55:40.008Z,31.13
2023-02-11T20:58:07.359Z,37.58
2023-02-11T21:00:35.649Z,32.97
2023-02-11T21:03:02.481Z,29.08
2023-02-11T21:05:29.210Z,43.35
2023-02-11T21:07:55.903Z,40.25
2023-02-11T21:10:22.582Z,31.63
2023-02-11T21:12:49.982Z,31.13
2023-02-11T21:15:16.720Z,28.77
2023-02-11T21:17:43.393Z,29.73
2023-02-11T21:20:10.402Z,38.00
2023-02-11T21:22:37.095Z,29.05
2023-02-11T21:25:05.956Z,26.02
2023-02-11T21:27:33.714Z,31.88
2023-02-11T21:30:01.247Z,34.67
2023-02-11T21:32:27.920Z,34.58
2023-02-11T21:34:54.666Z,30.02
2023-02-11T21:37:23.052Z,32.00
2023-02-11T21:39:49.949Z,32.60
2023-02-11T21:42:16.660Z,32.08
2023-02-11T21:44:43.313Z,30.85
2023-02-11T21:47:09.938Z,26.75
2023-02-11T21:49:36.750Z,30.67
2023-02-11T21:52:03.443Z,33.25
2023-02-11T21:54:31.982Z,29.85
2023-02-11T21:56:59.659Z,30.25
2023-02-11T21:59:26.328Z,31.58
2023-02-11T22:01:52.927Z,30.50
2023-02-11T22:04:19.589Z,32.30
2023-02-11T22:06:46.273Z,30.27
2023-02-11T22:09:12.956Z,31.83
2023-02-11T22:11:39.560Z,29.60
2023-02-11T22:14:06.265Z,26.42
2023-02-11T22:16:32.950Z,28.30
2023-02-11T22:19:00.152Z,28.95
2023-02-11T22:21:26.878Z,32.80
2023-02-11T22:23:54.460Z,32.28
2023-02-11T22:26:22.273Z,26.95
2023-02-11T22:28:49.593Z,28.95
2023-02-11T22:31:18.277Z,28.08
2023-02-11T22:33:45.233Z,25.83
2023-02-11T22:36:16.990Z,32.65
2023-02-11T22:38:43.640Z,27.23
2023-02-11T22:41:10.660Z,28.98
2023-02-11T22:43:37.460Z,29.77
2023-02-11T22:46:05.122Z,26.45
2023-02-11T22:48:32.123Z,29.65
2023-02-11T22:51:05.906Z,35.90
2023-02-11T22:53:32.514Z,29.25
2023-02-11T22:56:08.612Z,26.35
2023-02-11T22:58:35.645Z,30.85
2023-02-11T23:01:02.405Z,25.83
2023-02-11T23:03:29.065Z,31.02
2023-02-11T23:05:56.528Z,30.30
2023-02-11T23:08:23.399Z,30.85
2023-02-11T23:10:49.983Z,29.58
2023-02-11T23:13:16.584Z,29.98
2023-02-11T23:15:45.893Z,34.90
2023-02-11T23:18:12.757Z,29.35
2023-02-11T23:20:41.091Z,26.20
2023-02-11T23:23:07.713Z,27.20
2023-02-11T23:25:34.405Z,27.88
2023-02-11T23:28:01.659Z,32.85
2023-02-11T23:30:28.836Z,26.92
2023-02-11T23:32:55.468Z,31.70
2023-02-11T23:35:23.078Z,31.15
2023-02-11T23:37:49.889Z,30.67
2023-02-11T23:40:16.637Z,35.33
2023-02-11T23:42:43.215Z,24.98
2023-02-11T23:45:10.064Z,24.75
2023-02-11T23:47:36.650Z,26.15
2023-02-11T23:50:03.614Z,24.50
2023-02-11T23:52:30.256Z,27.30
2023-02-11T23:54:56.899Z,27.00
2023-02-11T23:57:23.551Z,30.30
2023-02-11T23:59:50.551Z,31.55
